createdAt,value
2023-07-18T00:01:29.181Z,0.00
2023-07-18T00:11:28.994Z,0.00
2023-07-18T00:21:29.025Z,0.00
2023-07-18T00:31:28.760Z,0.00
2023-07-18T00:41:28.582Z,0.00
2023-07-18T00:51:28.446Z,0.00
2023-07-18T01:01:28.538Z,0.00
2023-07-18T01:11:28.198Z,0.00
2023-07-18T01:21:28.200Z,0.00
2023-07-18T01:31:27.987Z,0.00
2023-07-18T01:41:27.838Z,0.00
2023-07-18T01:51:28.046Z,0.00
2023-07-18T02:01:28.046Z,0.00
2023-07-18T02:11:27.560Z,0.00
2023-07-18T02:21:27.415Z,0.00
2023-07-18T02:31:27.434Z,0.00
2023-07-18T02:41:27.141Z,0.00
2023-07-18T02:51:26.869Z,0.00
2023-07-18T03:01:26.808Z,5.62
2023-07-18T03:11:26.589Z,11.25
2023-07-18T03:21:26.439Z,22.50
2023-07-18T03:31:26.319Z,33.75
2023-07-18T03:41:26.195Z,45.00
2023-07-18T03:51:26.080Z,61.88
2023-07-18T04:01:26.076Z,73.12
2023-07-18T04:11:25.870Z,84.38
2023-07-18T04:21:25.720Z,90.00
2023-07-18T04:31:25.933Z,101.25
2023-07-18T04:41:25.479Z,112.50
2023-07-18T04:51:25.228Z,118.12
2023-07-18T05:01:25.259Z,129.38
2023-07-18T05:11:25.087Z,135.00
2023-07-18T05:21:24.854Z,151.88
2023-07-18T05:31:25.131Z,157.50
2023-07-18T05:41:24.715Z,174.38
2023-07-18T05:51:24.535Z,180.00
2023-07-18T06:01:25.865Z,219.38
2023-07-18T06:11:24.195Z,225.00
2023-07-18T06:21:24.052Z,219.38
2023-07-18T06:31:24.123Z,219.38
2023-07-18T06:41:23.799Z,219.38
2023-07-18T06:51:23.625Z,219.38
2023-07-18T07:01:23.807Z,275.62
2023-07-18T07:11:23.359Z,241.88
2023-07-18T07:21:23.274Z,230.62
2023-07-18T07:31:23.443Z,241.88
2023-07-18T07:41:23.113Z,253.12
2023-07-18T07:51:22.915Z,275.62
2023-07-18T08:01:22.951Z,348.75
2023-07-18T08:11:22.699Z,2143.12
2023-07-18T08:21:22.790Z,2278.12
2023-07-18T08:31:22.715Z,438.75
2023-07-18T08:41:22.729Z,1597.50
2023-07-18T08:51:22.180Z,433.12
2023-07-18T09:01:22.213Z,3335.62
2023-07-18T09:11:22.557Z,3493.12
2023-07-18T09:21:21.917Z,3341.25
2023-07-18T09:31:21.738Z,3555.00
2023-07-18T09:41:22.159Z,506.25
2023-07-18T09:51:21.784Z,3796.88
2023-07-18T10:01:21.784Z,3633.75
2023-07-18T10:11:21.432Z,2790.00
2023-07-18T10:21:21.232Z,3144.38
2023-07-18T10:31:21.032Z,3960.00
2023-07-18T10:41:20.936Z,4185.00
2023-07-18T10:51:20.843Z,1125.00
2023-07-18T11:01:20.676Z,4303.12
2023-07-18T11:11:20.568Z,4320.00
2023-07-18T11:21:20.822Z,1265.62
2023-07-18T11:31:30.781Z,4016.25
2023-07-18T11:41:20.172Z,855.00
2023-07-18T11:51:20.125Z,2205.00
2023-07-18T12:01:20.101Z,866.25
2023-07-18T12:11:19.584Z,2193.75
2023-07-18T12:21:19.775Z,500.62
2023-07-18T12:31:19.986Z,3538.12
2023-07-18T12:41:19.490Z,3549.38
2023-07-18T12:51:19.252Z,686.25
2023-07-18T13:01:19.255Z,3566.25
2023-07-18T13:11:19.018Z,607.50
2023-07-18T13:21:18.877Z,1395.00
2023-07-18T13:31:19.192Z,2700.00
2023-07-18T13:41:18.433Z,646.88
2023-07-18T13:51:18.461Z,2806.88
2023-07-18T14:01:18.252Z,590.62
2023-07-18T14:11:18.088Z,2992.50
2023-07-18T14:21:18.126Z,2722.50
2023-07-18T14:31:18.977Z,461.25
2023-07-18T14:41:17.708Z,585.00
2023-07-18T14:51:18.690Z,742.50
2023-07-18T15:01:17.644Z,365.62
2023-07-18T15:11:17.311Z,804.38
2023-07-18T15:21:17.168Z,646.88
2023-07-18T15:31:17.191Z,405.00
2023-07-18T15:41:17.023Z,478.12
2023-07-18T15:51:16.839Z,354.38
2023-07-18T16:01:16.701Z,309.38
2023-07-18T16:11:16.573Z,219.38
2023-07-18T16:21:16.473Z,365.62
2023-07-18T16:31:16.312Z,241.88
2023-07-18T16:41:16.119Z,270.00
2023-07-18T16:51:16.120Z,258.75
2023-07-18T17:01:15.898Z,292.50
2023-07-18T17:11:15.846Z,275.62
2023-07-18T17:21:15.635Z,219.38
2023-07-18T17:31:15.473Z,185.62
2023-07-18T17:41:15.358Z,146.25
2023-07-18T17:51:15.239Z,118.12
2023-07-18T18:01:15.125Z,106.88
2023-07-18T18:11:15.100Z,90.00
2023-07-18T18:21:14.822Z,78.75
2023-07-18T18:31:14.868Z,67.50
2023-07-18T18:41:14.560Z,50.62
2023-07-18T18:51:14.427Z,39.38
2023-07-18T19:01:14.239Z,22.50
2023-07-18T19:11:14.106Z,11.25
2023-07-18T19:21:14.014Z,5.62
2023-07-18T19:31:13.902Z,0.00
2023-07-18T19:41:13.748Z,0.00
2023-07-18T19:51:13.570Z,0.00
2023-07-18T20:01:13.532Z,0.00
2023-07-18T20:11:13.301Z,0.00
2023-07-18T20:21:13.290Z,0.00
2023-07-18T20:31:13.081Z,0.00
2023-07-18T20:41:12.885Z,0.00
2023-07-18T20:51:12.878Z,0.00
2023-07-18T21:01:12.695Z,0.00
2023-07-18T21:11:12.474Z,0.00
2023-07-18T21:21:12.368Z,0.00
2023-07-18T21:31:12.267Z,0.00
2023-07-18T21:41:12.081Z,0.00
2023-07-18T21:51:11.987Z,0.00
2023-07-18T22:01:11.879Z,0.00
2023-07-18T22:11:11.717Z,0.00
2023-07-18T22:21:11.541Z,0.00
2023-07-18T22:31:11.548Z,0.00
2023-07-18T22:41:11.368Z,0.00
2023-07-18T22:51:11.236Z,0.00
2023-07-18T23:01:11.144Z,0.00
2023-07-18T23:11:10.882Z,0.00
2023-07-18T23:21:10.781Z,0.00
2023-07-18T23:31:10.657Z,0.00
2023-07-18T23:41:10.596Z,0.00
2023-07-18T23:51:10.349Z,0.00
